createdAt,value
2023-04-09T00:00:19.893Z,0.00
2023-04-09T00:01:19.888Z,0.00
2023-04-09T00:02:19.937Z,0.00
2023-04-09T00:03:19.916Z,0.00
2023-04-09T00:04:19.898Z,0.00
2023-04-09T00:05:19.858Z,0.00
2023-04-09T00:06:19.851Z,0.00
2023-04-09T00:07:19.843Z,0.00
2023-04-09T00:08:19.859Z,0.00
2023-04-09T00:09:19.832Z,0.00
2023-04-09T00:10:19.817Z,0.00
2023-04-09T00:11:19.816Z,0.00
2023-04-09T00:12:19.805Z,0.00
2023-04-09T00:13:28.309Z,0.00
2023-04-09T00:14:21.797Z,0.00
2023-04-09T00:15:29.967Z,0.00
2023-04-09T00:16:21.822Z,0.00
2023-04-09T00:17:19.862Z,0.00
2023-04-09T00:18:19.782Z,0.00
2023-04-09T00:19:20.071Z,0.00
2023-04-09T00:20:19.752Z,0.00
2023-04-09T00:21:19.746Z,0.00
2023-04-09T00:22:19.735Z,0.00
2023-04-09T00:23:19.933Z,0.00
2023-04-09T00:24:19.716Z,0.00
2023-04-09T00:25:19.730Z,0.00
2023-04-09T00:26:19.706Z,0.00
2023-04-09T00:27:19.689Z,0.00
2023-04-09T00:28:19.715Z,0.00
2023-04-09T00:29:19.679Z,0.00
2023-04-09T00:30:19.665Z,0.00
2023-04-09T00:31:20.706Z,0.00
2023-04-09T00:32:20.655Z,0.00
2023-04-09T00:33:19.677Z,0.00
2023-04-09T00:34:19.639Z,0.00
2023-04-09T00:35:19.637Z,0.00
2023-04-09T00:36:19.626Z,0.00
2023-04-09T00:37:19.615Z,0.00
2023-04-09T00:38:19.643Z,0.00
2023-04-09T00:39:19.609Z,0.00
2023-04-09T00:40:19.601Z,0.00
2023-04-09T00:41:19.585Z,0.00
2023-04-09T00:42:19.590Z,0.00
2023-04-09T00:43:19.594Z,0.00
2023-04-09T00:44:19.563Z,0.00
2023-04-09T00:45:19.560Z,0.00
2023-04-09T00:46:19.624Z,0.00
2023-04-09T00:47:19.566Z,0.00
2023-04-09T00:48:19.576Z,0.00
2023-04-09T00:49:19.534Z,0.00
2023-04-09T00:50:19.527Z,0.00
2023-04-09T00:51:19.513Z,0.00
2023-04-09T00:52:19.505Z,0.00
2023-04-09T00:53:19.527Z,0.00
2023-04-09T00:54:19.494Z,0.00
2023-04-09T00:55:19.485Z,0.00
2023-04-09T00:56:19.477Z,0.00
2023-04-09T00:57:19.472Z,0.00
2023-04-09T00:58:19.488Z,0.00
2023-04-09T00:59:19.460Z,0.00
2023-04-09T01:00:19.445Z,0.00
2023-04-09T01:01:19.496Z,0.00
2023-04-09T01:02:19.502Z,0.00
2023-04-09T01:03:19.539Z,0.00
2023-04-09T01:04:19.421Z,0.00
2023-04-09T01:05:19.409Z,0.00
2023-04-09T01:06:19.400Z,0.00
2023-04-09T01:07:19.389Z,0.00
2023-04-09T01:08:19.413Z,0.00
2023-04-09T01:09:19.372Z,0.00
2023-04-09T01:10:19.401Z,0.00
2023-04-09T01:11:19.355Z,0.00
2023-04-09T01:12:19.350Z,0.00
2023-04-09T01:13:19.374Z,0.00
2023-04-09T01:14:19.331Z,0.00
2023-04-09T01:15:19.335Z,0.00
2023-04-09T01:16:19.370Z,0.00
2023-04-09T01:17:19.316Z,0.00
2023-04-09T01:18:19.320Z,0.00
2023-04-09T01:19:19.286Z,0.00
2023-04-09T01:20:19.282Z,0.00
2023-04-09T01:21:19.283Z,0.00
2023-04-09T01:22:19.269Z,0.00
2023-04-09T01:23:19.283Z,0.00
2023-04-09T01:24:19.256Z,0.00
2023-04-09T01:25:19.251Z,0.00
2023-04-09T01:26:19.281Z,0.00
2023-04-09T01:27:19.227Z,0.00
2023-04-09T01:28:19.258Z,0.00
2023-04-09T01:29:19.211Z,0.00
2023-04-09T01:30:19.251Z,0.00
2023-04-09T01:31:19.210Z,0.00
2023-04-09T01:32:19.226Z,0.00
2023-04-09T01:33:19.208Z,0.00
2023-04-09T01:34:19.186Z,0.00
2023-04-09T01:35:19.179Z,0.00
2023-04-09T01:36:19.172Z,0.00
2023-04-09T01:37:19.158Z,0.00
2023-04-09T01:38:19.187Z,0.00
2023-04-09T01:39:19.145Z,0.00
2023-04-09T01:40:19.142Z,0.00
2023-04-09T01:41:19.126Z,0.00
2023-04-09T01:42:19.119Z,0.00
2023-04-09T01:43:19.130Z,0.00
2023-04-09T01:44:19.093Z,0.00
2023-04-09T01:45:19.102Z,0.00
2023-04-09T01:46:19.113Z,0.00
2023-04-09T01:47:19.072Z,0.00
2023-04-09T01:48:19.094Z,0.00
2023-04-09T01:49:19.061Z,0.00
2023-04-09T01:50:19.051Z,0.00
2023-04-09T01:51:19.044Z,0.00
2023-04-09T01:52:19.038Z,0.00
2023-04-09T01:53:19.055Z,0.00
2023-04-09T01:54:19.020Z,0.00
2023-04-09T01:55:19.022Z,0.00
2023-04-09T01:56:19.008Z,0.00
2023-04-09T01:57:18.997Z,0.00
2023-04-09T01:58:19.020Z,0.00
2023-04-09T01:59:18.991Z,0.00
2023-04-09T02:00:18.994Z,0.00
2023-04-09T02:01:19.034Z,0.00
2023-04-09T02:02:19.134Z,0.00
2023-04-09T02:03:19.013Z,0.00
2023-04-09T02:04:18.952Z,0.00
2023-04-09T02:05:18.952Z,0.00
2023-04-09T02:06:18.932Z,0.00
2023-04-09T02:07:18.928Z,0.00
2023-04-09T02:08:18.939Z,0.00
2023-04-09T02:09:18.905Z,0.00
2023-04-09T02:10:18.902Z,0.00
2023-04-09T02:11:18.893Z,0.00
2023-04-09T02:12:18.902Z,0.00
2023-04-09T02:13:18.879Z,0.00
2023-04-09T02:14:18.909Z,0.00
2023-04-09T02:15:18.864Z,0.00
2023-04-09T02:16:19.025Z,0.00
2023-04-09T02:17:18.849Z,0.00
2023-04-09T02:18:18.837Z,0.00
2023-04-09T02:19:18.902Z,0.00
2023-04-09T02:20:18.840Z,0.00
2023-04-09T02:21:18.816Z,0.00
2023-04-09T02:22:18.831Z,0.00
2023-04-09T02:23:18.801Z,0.00
2023-04-09T02:24:18.890Z,0.00
2023-04-09T02:25:18.780Z,0.00
2023-04-09T02:26:18.777Z,0.00
2023-04-09T02:27:18.781Z,0.00
2023-04-09T02:28:18.761Z,0.00
2023-04-09T02:29:18.783Z,0.00
2023-04-09T02:30:18.746Z,0.00
2023-04-09T02:31:18.836Z,0.00
2023-04-09T02:32:18.729Z,0.00
2023-04-09T02:33:18.726Z,0.00
2023-04-09T02:34:18.738Z,0.00
2023-04-09T02:35:18.711Z,0.00
2023-04-09T02:36:18.702Z,0.00
2023-04-09T02:37:18.693Z,0.00
2023-04-09T02:38:18.691Z,0.00
2023-04-09T02:39:18.703Z,0.00
2023-04-09T02:40:18.671Z,0.00
2023-04-09T02:41:18.663Z,0.00
2023-04-09T02:42:18.696Z,0.00
2023-04-09T02:43:18.655Z,0.00
2023-04-09T02:44:18.667Z,0.00
2023-04-09T02:45:18.637Z,0.00
2023-04-09T02:46:18.688Z,0.00
2023-04-09T02:47:18.632Z,0.00
2023-04-09T02:48:18.612Z,0.00
2023-04-09T02:49:18.632Z,0.00
2023-04-09T02:50:18.602Z,0.00
2023-04-09T02:51:18.589Z,0.00
2023-04-09T02:52:18.598Z,0.00
2023-04-09T02:53:18.580Z,0.00
2023-04-09T02:54:18.586Z,0.00
2023-04-09T02:55:18.560Z,0.00
2023-04-09T02:56:18.561Z,0.00
2023-04-09T02:57:18.544Z,0.00
2023-04-09T02:58:18.544Z,0.00
2023-04-09T02:59:18.553Z,0.00
2023-04-09T03:00:18.524Z,0.00
2023-04-09T03:01:18.572Z,0.00
2023-04-09T03:02:18.608Z,0.00
2023-04-09T03:03:18.571Z,0.00
2023-04-09T03:04:18.540Z,0.00
2023-04-09T03:05:18.484Z,0.00
2023-04-09T03:06:18.700Z,0.00
2023-04-09T03:07:18.455Z,0.00
2023-04-09T03:08:18.449Z,0.00
2023-04-09T03:09:18.478Z,0.00
2023-04-09T03:10:18.433Z,0.00
2023-04-09T03:11:18.434Z,0.00
2023-04-09T03:12:18.419Z,0.00
2023-04-09T03:13:18.414Z,0.00
2023-04-09T03:14:18.436Z,0.00
2023-04-09T03:15:18.398Z,0.00
2023-04-09T03:16:18.470Z,0.00
2023-04-09T03:17:18.387Z,0.00
2023-04-09T03:18:18.373Z,0.00
2023-04-09T03:19:18.401Z,0.00
2023-04-09T03:20:18.352Z,0.00
2023-04-09T03:21:18.354Z,0.00
2023-04-09T03:22:18.344Z,0.00
2023-04-09T03:23:18.336Z,0.00
2023-04-09T03:24:18.353Z,0.00
2023-04-09T03:25:18.326Z,0.00
2023-04-09T03:26:18.322Z,0.00
2023-04-09T03:27:18.305Z,0.00
2023-04-09T03:28:18.288Z,0.00
2023-04-09T03:29:18.284Z,0.00
2023-04-09T03:30:18.315Z,0.00
2023-04-09T03:31:18.300Z,0.00
2023-04-09T03:32:19.164Z,0.00
2023-04-09T03:33:19.256Z,0.00
2023-04-09T03:34:18.247Z,0.00
2023-04-09T03:35:18.263Z,0.00
2023-04-09T03:36:18.232Z,0.00
2023-04-09T03:37:18.230Z,0.00
2023-04-09T03:38:18.226Z,0.00
2023-04-09T03:39:18.208Z,0.00
2023-04-09T03:40:18.224Z,0.00
2023-04-09T03:41:18.195Z,0.00
2023-04-09T03:42:18.182Z,0.00
2023-04-09T03:43:18.169Z,0.00
2023-04-09T03:44:18.179Z,0.00
2023-04-09T03:45:18.181Z,0.00
2023-04-09T03:46:18.164Z,0.00
2023-04-09T03:47:18.143Z,0.00
2023-04-09T03:48:18.136Z,0.00
2023-04-09T03:49:18.125Z,0.00
2023-04-09T03:50:18.145Z,0.00
2023-04-09T03:51:18.107Z,0.00
2023-04-09T03:52:18.111Z,0.00
2023-04-09T03:53:18.098Z,0.00
2023-04-09T03:54:18.112Z,0.00
2023-04-09T03:55:18.111Z,0.00
2023-04-09T03:56:18.074Z,0.00
2023-04-09T03:57:18.066Z,0.00
2023-04-09T03:58:18.051Z,0.00
2023-04-09T03:59:18.057Z,0.00
2023-04-09T04:00:18.070Z,0.00
2023-04-09T04:01:18.045Z,0.00
2023-04-09T04:02:18.035Z,0.00
2023-04-09T04:03:18.182Z,0.00
2023-04-09T04:04:18.853Z,0.00
2023-04-09T04:05:18.026Z,0.00
2023-04-09T04:06:17.995Z,0.00
2023-04-09T04:07:17.993Z,0.00
2023-04-09T04:08:17.969Z,0.00
2023-04-09T04:09:17.960Z,0.00
2023-04-09T04:10:17.992Z,0.00
2023-04-09T04:11:17.946Z,0.00
2023-04-09T04:12:17.939Z,0.00
2023-04-09T04:13:17.968Z,0.00
2023-04-09T04:14:17.921Z,0.00
2023-04-09T04:15:17.938Z,0.00
2023-04-09T04:16:17.951Z,0.00
2023-04-09T04:17:17.955Z,0.00
2023-04-09T04:18:17.898Z,4.00
2023-04-09T04:19:17.881Z,0.00
2023-04-09T04:20:17.896Z,0.00
2023-04-09T04:21:17.877Z,4.00
2023-04-09T04:22:17.888Z,0.00
2023-04-09T04:23:17.853Z,4.00
2023-04-09T04:24:17.834Z,4.00
2023-04-09T04:25:17.850Z,8.00
2023-04-09T04:26:17.821Z,8.00
2023-04-09T04:27:17.815Z,8.00
2023-04-09T04:28:17.800Z,8.00
2023-04-09T04:29:17.795Z,8.00
2023-04-09T04:30:17.828Z,12.00
2023-04-09T04:31:17.800Z,16.00
2023-04-09T04:32:17.773Z,16.00
2023-04-09T04:33:17.770Z,16.00
2023-04-09T04:34:17.752Z,20.00
2023-04-09T04:35:17.800Z,24.00
2023-04-09T04:36:17.757Z,28.00
2023-04-09T04:37:17.730Z,28.00
2023-04-09T04:38:17.734Z,32.00
2023-04-09T04:39:17.717Z,36.00
2023-04-09T04:40:17.758Z,40.00
2023-04-09T04:41:17.709Z,44.00
2023-04-09T04:42:17.713Z,48.00
2023-04-09T04:43:17.678Z,52.00
2023-04-09T04:44:17.675Z,56.00
2023-04-09T04:45:17.697Z,60.00
2023-04-09T04:46:17.750Z,68.00
2023-04-09T04:47:17.716Z,76.00
2023-04-09T04:48:17.639Z,80.00
2023-04-09T04:49:17.637Z,88.00
2023-04-09T04:50:17.657Z,92.00
2023-04-09T04:51:17.622Z,100.00
2023-04-09T04:52:17.942Z,104.00
2023-04-09T04:53:18.601Z,116.00
2023-04-09T04:54:17.600Z,120.00
2023-04-09T04:55:17.609Z,128.00
2023-04-09T04:56:17.616Z,136.00
2023-04-09T04:57:17.569Z,148.00
2023-04-09T04:58:17.559Z,156.00
2023-04-09T04:59:17.551Z,172.00
2023-04-09T05:00:17.596Z,180.00
2023-04-09T05:01:17.561Z,196.00
2023-04-09T05:02:17.751Z,208.00
2023-04-09T05:03:17.578Z,220.00
2023-04-09T05:04:17.552Z,232.00
2023-04-09T05:05:17.536Z,244.00
2023-04-09T05:06:17.505Z,260.00
2023-04-09T05:07:17.489Z,276.00
2023-04-09T05:08:17.478Z,292.00
2023-04-09T05:09:17.490Z,304.00
2023-04-09T05:10:17.501Z,312.00
2023-04-09T05:11:17.453Z,320.00
2023-04-09T05:12:17.443Z,328.00
2023-04-09T05:13:17.448Z,332.00
2023-04-09T05:14:17.432Z,344.00
2023-04-09T05:15:17.445Z,368.00
2023-04-09T05:16:17.448Z,392.00
2023-04-09T05:17:17.462Z,416.00
2023-04-09T05:18:17.408Z,436.00
2023-04-09T05:19:17.392Z,456.00
2023-04-09T05:20:17.409Z,468.00
2023-04-09T05:21:17.375Z,476.00
2023-04-09T05:22:17.368Z,496.00
2023-04-09T05:23:17.497Z,520.00
2023-04-09T05:24:17.357Z,536.00
2023-04-09T05:25:17.371Z,556.00
2023-04-09T05:26:17.407Z,580.00
2023-04-09T05:27:17.331Z,596.00
2023-04-09T05:28:17.325Z,636.00
2023-04-09T05:29:17.326Z,684.00
2023-04-09T05:30:17.345Z,712.00
2023-04-09T05:31:17.387Z,712.00
2023-04-09T05:32:17.303Z,712.00
2023-04-09T05:33:17.278Z,732.00
2023-04-09T05:34:17.273Z,740.00
2023-04-09T05:35:17.296Z,760.00
2023-04-09T05:36:17.255Z,804.00
2023-04-09T05:37:17.249Z,836.00
2023-04-09T05:38:17.245Z,928.00
2023-04-09T05:39:17.236Z,1000.00
2023-04-09T05:40:17.232Z,1040.00
2023-04-09T05:41:17.250Z,1024.00
2023-04-09T05:42:17.208Z,1016.00
2023-04-09T05:43:17.202Z,1008.00
2023-04-09T05:44:17.192Z,1052.00
2023-04-09T05:45:17.192Z,1132.00
2023-04-09T05:46:17.254Z,1196.00
2023-04-09T05:47:17.169Z,1212.00
2023-04-09T05:48:17.172Z,1220.00
2023-04-09T05:49:17.154Z,1268.00
2023-04-09T05:50:17.150Z,1240.00
2023-04-09T05:51:17.179Z,1232.00
2023-04-09T05:52:17.130Z,1240.00
2023-04-09T05:53:17.133Z,1244.00
2023-04-09T05:54:17.125Z,1312.00
2023-04-09T05:55:17.111Z,1380.00
2023-04-09T05:56:17.134Z,1420.00
2023-04-09T05:57:17.100Z,1376.00
2023-04-09T05:58:17.087Z,1436.00
2023-04-09T05:59:17.085Z,1444.00
2023-04-09T06:00:17.075Z,1432.00
2023-04-09T06:01:17.087Z,1428.00
2023-04-09T06:02:17.141Z,1308.00
2023-04-09T06:03:17.186Z,1268.00
2023-04-09T06:04:17.355Z,1196.00
2023-04-09T06:05:17.032Z,1180.00
2023-04-09T06:06:17.049Z,1272.00
2023-04-09T06:07:17.015Z,1476.00
2023-04-09T06:08:17.006Z,1600.00
2023-04-09T06:09:17.010Z,1612.00
2023-04-09T06:10:17.005Z,1464.00
2023-04-09T06:11:17.025Z,1484.00
2023-04-09T06:12:16.973Z,1452.00
2023-04-09T06:13:16.972Z,1404.00
2023-04-09T06:14:16.971Z,1360.00
2023-04-09T06:15:16.952Z,1416.00
2023-04-09T06:16:17.082Z,1424.00
2023-04-09T06:17:16.941Z,1504.00
2023-04-09T06:18:16.932Z,1624.00
2023-04-09T06:19:16.915Z,1692.00
2023-04-09T06:20:16.915Z,1808.00
2023-04-09T06:21:16.932Z,1980.00
2023-04-09T06:22:16.899Z,2088.00
2023-04-09T06:23:16.886Z,2128.00
2023-04-09T06:24:16.878Z,2184.00
2023-04-09T06:25:16.874Z,2384.00
2023-04-09T06:26:16.892Z,2580.00
2023-04-09T06:27:16.858Z,2660.00
2023-04-09T06:28:16.847Z,2688.00
2023-04-09T06:29:16.842Z,2696.00
2023-04-09T06:30:16.834Z,2604.00
2023-04-09T06:31:16.857Z,2500.00
2023-04-09T06:32:16.822Z,2476.00
2023-04-09T06:33:16.859Z,2516.00
2023-04-09T06:34:16.810Z,2440.00
2023-04-09T06:35:16.798Z,2264.00
2023-04-09T06:36:16.858Z,2212.00
2023-04-09T06:37:16.784Z,2156.00
2023-04-09T06:38:16.770Z,2020.00
2023-04-09T06:39:16.760Z,1936.00
2023-04-09T06:40:16.752Z,1948.00
2023-04-09T06:41:16.773Z,2020.00
2023-04-09T06:42:16.738Z,2160.00
2023-04-09T06:43:16.730Z,2228.00
2023-04-09T06:44:16.722Z,2148.00
2023-04-09T06:45:16.737Z,2168.00
2023-04-09T06:46:16.761Z,2220.00
2023-04-09T06:47:16.699Z,2216.00
2023-04-09T06:48:16.692Z,2260.00
2023-04-09T06:49:16.682Z,2368.00
2023-04-09T06:50:17.692Z,2392.00
2023-04-09T06:51:16.704Z,2456.00
2023-04-09T06:52:16.675Z,2464.00
2023-04-09T06:53:16.707Z,2524.00
2023-04-09T06:54:16.646Z,2560.00
2023-04-09T06:55:16.657Z,2544.00
2023-04-09T06:56:16.658Z,2576.00
2023-04-09T06:57:16.620Z,2516.00
2023-04-09T06:58:16.615Z,2548.00
2023-04-09T06:59:16.610Z,2600.00
2023-04-09T07:00:16.609Z,2888.00
2023-04-09T07:01:16.654Z,3160.00
2023-04-09T07:02:16.656Z,3148.00
2023-04-09T07:03:16.663Z,3172.00
2023-04-09T07:04:16.708Z,3160.00
2023-04-09T07:05:16.583Z,3160.00
2023-04-09T07:06:16.581Z,3132.00
2023-04-09T07:07:16.551Z,3092.00
2023-04-09T07:08:16.542Z,3004.00
2023-04-09T07:09:16.536Z,2888.00
2023-04-09T07:10:16.520Z,2844.00
2023-04-09T07:11:16.545Z,2868.00
2023-04-09T07:12:16.512Z,2892.00
2023-04-09T07:13:16.507Z,2980.00
2023-04-09T07:14:16.499Z,3064.00
2023-04-09T07:15:16.496Z,3048.00
2023-04-09T07:16:16.532Z,3052.00
2023-04-09T07:17:16.473Z,3180.00
2023-04-09T07:18:16.464Z,3244.00
2023-04-09T07:19:16.458Z,3308.00
2023-04-09T07:20:16.446Z,3484.00
2023-04-09T07:21:16.463Z,3652.00
2023-04-09T07:22:16.429Z,3764.00
2023-04-09T07:23:16.427Z,4016.00
2023-04-09T07:24:16.416Z,4208.00
2023-04-09T07:25:16.408Z,4352.00
2023-04-09T07:26:16.433Z,4604.00
2023-04-09T07:27:16.396Z,4888.00
2023-04-09T07:28:16.535Z,5048.00
2023-04-09T07:29:16.378Z,5092.00
2023-04-09T07:30:16.380Z,5112.00
2023-04-09T07:31:16.431Z,5144.00
2023-04-09T07:32:16.355Z,5136.00
2023-04-09T07:33:16.348Z,5184.00
2023-04-09T07:34:16.338Z,5308.00
2023-04-09T07:35:16.336Z,5448.00
2023-04-09T07:36:16.422Z,5556.00
2023-04-09T07:37:16.316Z,5780.00
2023-04-09T07:38:16.316Z,5928.00
2023-04-09T07:39:16.309Z,5836.00
2023-04-09T07:40:16.300Z,5600.00
2023-04-09T07:41:16.304Z,5516.00
2023-04-09T07:42:16.273Z,5720.00
2023-04-09T07:43:17.429Z,5872.00
2023-04-09T07:44:16.260Z,5888.00
2023-04-09T07:45:16.263Z,5868.00
2023-04-09T07:46:16.303Z,5688.00
2023-04-09T07:47:16.239Z,5448.00
2023-04-09T07:48:16.225Z,5280.00
2023-04-09T07:49:16.234Z,5304.00
2023-04-09T07:50:16.208Z,5544.00
2023-04-09T07:51:16.228Z,5792.00
2023-04-09T07:52:16.192Z,5904.00
2023-04-09T07:53:16.189Z,6000.00
2023-04-09T07:54:16.175Z,6036.00
2023-04-09T07:55:17.351Z,6072.00
2023-04-09T07:56:16.199Z,6080.00
2023-04-09T07:57:16.154Z,6000.00
2023-04-09T07:58:16.145Z,6052.00
2023-04-09T07:59:16.143Z,6300.00
2023-04-09T08:00:16.129Z,6684.00
2023-04-09T08:01:16.149Z,7328.00
2023-04-09T08:02:16.202Z,7944.00
2023-04-09T08:03:16.212Z,8228.00
2023-04-09T08:04:16.211Z,8504.00
2023-04-09T08:05:16.125Z,8560.00
2023-04-09T08:06:16.108Z,8564.00
2023-04-09T08:07:16.077Z,8728.00
2023-04-09T08:08:16.074Z,9076.00
2023-04-09T08:09:16.058Z,9392.00
2023-04-09T08:10:16.046Z,9928.00
2023-04-09T08:11:16.088Z,10748.00
2023-04-09T08:12:16.050Z,11680.00
2023-04-09T08:13:16.032Z,12228.00
2023-04-09T08:14:16.018Z,12368.00
2023-04-09T08:15:16.014Z,12200.00
2023-04-09T08:16:16.113Z,12076.00
2023-04-09T08:17:15.995Z,12160.00
2023-04-09T08:18:15.985Z,12104.00
2023-04-09T08:19:15.984Z,11836.00
2023-04-09T08:20:15.976Z,11488.00
2023-04-09T08:21:15.991Z,11232.00
2023-04-09T08:22:15.953Z,11456.00
2023-04-09T08:23:15.946Z,11588.00
2023-04-09T08:24:15.945Z,12080.00
2023-04-09T08:25:15.954Z,12472.00
2023-04-09T08:26:15.951Z,12036.00
2023-04-09T08:27:15.924Z,11472.00
2023-04-09T08:28:15.917Z,11388.00
2023-04-09T08:29:15.900Z,11932.00
2023-04-09T08:30:16.974Z,12616.00
2023-04-09T08:31:15.915Z,12540.00
2023-04-09T08:32:15.993Z,12388.00
2023-04-09T08:33:15.872Z,13016.00
2023-04-09T08:34:15.866Z,14432.00
2023-04-09T08:35:15.866Z,16576.00
2023-04-09T08:36:15.920Z,17920.00
2023-04-09T08:37:15.845Z,17856.00
2023-04-09T08:38:15.834Z,17088.00
2023-04-09T08:39:15.831Z,15324.00
2023-04-09T08:40:15.818Z,13800.00
2023-04-09T08:41:15.846Z,12300.00
2023-04-09T08:42:15.810Z,11096.00
2023-04-09T08:43:15.786Z,10408.00
2023-04-09T08:44:16.788Z,10076.00
2023-04-09T08:45:15.773Z,10004.00
2023-04-09T08:46:15.957Z,10172.00
2023-04-09T08:47:15.764Z,10272.00
2023-04-09T08:48:15.802Z,10296.00
2023-04-09T08:49:15.749Z,10544.00
2023-04-09T08:50:15.776Z,11356.00
2023-04-09T08:51:15.729Z,13420.00
2023-04-09T08:52:15.756Z,13824.00
2023-04-09T08:53:15.721Z,14580.00
2023-04-09T08:54:15.703Z,16352.00
2023-04-09T08:55:15.703Z,24864.00
2023-04-09T08:56:15.697Z,16640.00
2023-04-09T08:57:15.721Z,13472.00
2023-04-09T08:58:15.669Z,12644.00
2023-04-09T08:59:15.662Z,11964.00
2023-04-09T09:00:15.656Z,10936.00
2023-04-09T09:01:15.683Z,10484.00
2023-04-09T09:02:15.680Z,10768.00
2023-04-09T09:03:15.727Z,11228.00
2023-04-09T09:04:15.678Z,11700.00
2023-04-09T09:05:15.615Z,11888.00
2023-04-09T09:06:15.609Z,11432.00
2023-04-09T09:07:15.634Z,10948.00
2023-04-09T09:08:15.587Z,10800.00
2023-04-09T09:09:15.590Z,10788.00
2023-04-09T09:10:15.581Z,11244.00
2023-04-09T09:11:15.566Z,12084.00
2023-04-09T09:12:15.631Z,12780.00
2023-04-09T09:13:15.559Z,13160.00
2023-04-09T09:14:15.544Z,13204.00
2023-04-09T09:15:15.536Z,12920.00
2023-04-09T09:16:15.581Z,16480.00
2023-04-09T09:17:15.552Z,13760.00
2023-04-09T09:18:15.523Z,11128.00
2023-04-09T09:19:15.500Z,10132.00
2023-04-09T09:20:15.503Z,9912.00
2023-04-09T09:21:15.486Z,10036.00
2023-04-09T09:22:15.495Z,9896.00
2023-04-09T09:23:15.470Z,9732.00
2023-04-09T09:24:15.458Z,9568.00
2023-04-09T09:25:15.455Z,9496.00
2023-04-09T09:26:15.445Z,9496.00
2023-04-09T09:27:15.455Z,9620.00
2023-04-09T09:28:15.427Z,9696.00
2023-04-09T09:29:15.426Z,10076.00
2023-04-09T09:30:15.411Z,10788.00
2023-04-09T09:31:15.430Z,11508.00
2023-04-09T09:32:15.424Z,11632.00
2023-04-09T09:33:15.388Z,11556.00
2023-04-09T09:34:15.380Z,11244.00
2023-04-09T09:35:15.393Z,11032.00
2023-04-09T09:36:15.385Z,11148.00
2023-04-09T09:37:15.384Z,11184.00
2023-04-09T09:38:15.350Z,10784.00
2023-04-09T09:39:15.355Z,10248.00
2023-04-09T09:40:15.338Z,10236.00
2023-04-09T09:41:15.332Z,10476.00
2023-04-09T09:42:15.379Z,10460.00
2023-04-09T09:43:15.317Z,10464.00
2023-04-09T09:44:15.306Z,10560.00
2023-04-09T09:45:15.337Z,10468.00
2023-04-09T09:46:15.360Z,10408.00
2023-04-09T09:47:15.304Z,10416.00
2023-04-09T09:48:15.269Z,10332.00
2023-04-09T09:49:15.258Z,10372.00
2023-04-09T09:50:15.256Z,11160.00
2023-04-09T09:51:15.247Z,11580.00
2023-04-09T09:52:15.271Z,11508.00
2023-04-09T09:53:15.236Z,11272.00
2023-04-09T09:54:15.226Z,11160.00
2023-04-09T09:55:15.220Z,11156.00
2023-04-09T09:56:15.210Z,11168.00
2023-04-09T09:57:15.228Z,11612.00
2023-04-09T09:58:15.195Z,12520.00
2023-04-09T09:59:15.192Z,12584.00
2023-04-09T10:00:15.183Z,12720.00
2023-04-09T10:01:15.203Z,13092.00
2023-04-09T10:02:15.238Z,13396.00
2023-04-09T10:03:15.214Z,13668.00
2023-04-09T10:04:15.233Z,13740.00
2023-04-09T10:05:15.137Z,13444.00
2023-04-09T10:06:15.132Z,13308.00
2023-04-09T10:07:15.151Z,13448.00
2023-04-09T10:08:15.115Z,13284.00
2023-04-09T10:09:15.117Z,12596.00
2023-04-09T10:10:15.146Z,11892.00
2023-04-09T10:11:15.094Z,12836.00
2023-04-09T10:12:15.104Z,11068.00
2023-04-09T10:13:15.079Z,10928.00
2023-04-09T10:14:15.080Z,10920.00
2023-04-09T10:15:15.054Z,10860.00
2023-04-09T10:16:15.072Z,10728.00
2023-04-09T10:17:15.063Z,10492.00
2023-04-09T10:18:15.062Z,10640.00
2023-04-09T10:19:15.022Z,10316.00
2023-04-09T10:20:15.034Z,10268.00
2023-04-09T10:21:15.006Z,10536.00
2023-04-09T10:22:15.040Z,11648.00
2023-04-09T10:23:14.999Z,10876.00
2023-04-09T10:24:15.065Z,10920.00
2023-04-09T10:25:15.025Z,12768.00
2023-04-09T10:26:14.963Z,11864.00
2023-04-09T10:27:16.221Z,11828.00
2023-04-09T10:28:15.977Z,11644.00
2023-04-09T10:29:14.944Z,11144.00
2023-04-09T10:30:14.950Z,10660.00
2023-04-09T10:31:14.962Z,10600.00
2023-04-09T10:32:14.913Z,10444.00
2023-04-09T10:33:14.930Z,10420.00
2023-04-09T10:34:14.911Z,10436.00
2023-04-09T10:35:14.893Z,10120.00
2023-04-09T10:36:14.956Z,10032.00
2023-04-09T10:37:14.893Z,9940.00
2023-04-09T10:38:14.900Z,9716.00
2023-04-09T10:39:14.862Z,9120.00
2023-04-09T10:40:14.889Z,8688.00
2023-04-09T10:41:14.868Z,8516.00
2023-04-09T10:42:14.844Z,8300.00
2023-04-09T10:43:14.870Z,8068.00
2023-04-09T10:44:14.825Z,7924.00
2023-04-09T10:45:15.048Z,8112.00
2023-04-09T10:46:14.824Z,8664.00
2023-04-09T10:47:14.805Z,9560.00
2023-04-09T10:48:14.820Z,10436.00
2023-04-09T10:49:14.784Z,11292.00
2023-04-09T10:50:14.782Z,11896.00
2023-04-09T10:51:14.774Z,10848.00
2023-04-09T10:52:14.772Z,10928.00
2023-04-09T10:53:14.782Z,10852.00
2023-04-09T10:54:14.746Z,10780.00
2023-04-09T10:55:14.737Z,10944.00
2023-04-09T10:56:14.730Z,11264.00
2023-04-09T10:57:14.725Z,11016.00
2023-04-09T10:58:14.739Z,11064.00
2023-04-09T10:59:14.703Z,11156.00
2023-04-09T11:00:14.697Z,11320.00
2023-04-09T11:01:14.697Z,11380.00
2023-04-09T11:02:14.727Z,11472.00
2023-04-09T11:03:14.890Z,11516.00
2023-04-09T11:04:14.677Z,11816.00
2023-04-09T11:05:14.659Z,12916.00
2023-04-09T11:06:14.655Z,14156.00
2023-04-09T11:07:14.649Z,14628.00
2023-04-09T11:08:14.669Z,15200.00
2023-04-09T11:09:14.633Z,14592.00
2023-04-09T11:10:14.624Z,14008.00
2023-04-09T11:11:14.620Z,13344.00
2023-04-09T11:12:14.616Z,11948.00
2023-04-09T11:13:14.618Z,11144.00
2023-04-09T11:14:14.593Z,11620.00
2023-04-09T11:15:14.575Z,10888.00
2023-04-09T11:16:22.839Z,9932.00
2023-04-09T11:17:15.564Z,10704.00
2023-04-09T11:18:14.586Z,10740.00
2023-04-09T11:19:14.549Z,10728.00
2023-04-09T11:20:14.549Z,10888.00
2023-04-09T11:21:14.531Z,11012.00
2023-04-09T11:22:14.531Z,11124.00
2023-04-09T11:23:14.544Z,11296.00
2023-04-09T11:24:14.504Z,11504.00
2023-04-09T11:25:14.497Z,11688.00
2023-04-09T11:26:14.494Z,11996.00
2023-04-09T11:27:14.483Z,10492.00
2023-04-09T11:28:14.492Z,12108.00
2023-04-09T11:29:14.460Z,11852.00
2023-04-09T11:30:14.458Z,11608.00
2023-04-09T11:31:14.454Z,10836.00
2023-04-09T11:32:14.451Z,9420.00
2023-04-09T11:33:15.146Z,9828.00
2023-04-09T11:34:14.421Z,11260.00
2023-04-09T11:35:14.422Z,10092.00
2023-04-09T11:36:14.446Z,11296.00
2023-04-09T11:37:14.403Z,11312.00
2023-04-09T11:38:14.419Z,11244.00
2023-04-09T11:39:14.385Z,11164.00
2023-04-09T11:40:14.397Z,11192.00
2023-04-09T11:41:14.367Z,11176.00
2023-04-09T11:42:14.352Z,10980.00
2023-04-09T11:43:14.375Z,9440.00
2023-04-09T11:44:14.336Z,8528.00
2023-04-09T11:45:14.340Z,8204.00
2023-04-09T11:46:14.325Z,8428.00
2023-04-09T11:47:14.332Z,10420.00
2023-04-09T11:48:14.333Z,9348.00
2023-04-09T11:49:14.299Z,9596.00
2023-04-09T11:50:14.301Z,10276.00
2023-04-09T11:51:14.293Z,9808.00
2023-04-09T11:52:14.279Z,10488.00
2023-04-09T11:53:14.310Z,12244.00
2023-04-09T11:54:14.263Z,12272.00
2023-04-09T11:55:14.255Z,9996.00
2023-04-09T11:56:14.263Z,9720.00
2023-04-09T11:57:14.247Z,9504.00
2023-04-09T11:58:14.264Z,9296.00
2023-04-09T11:59:14.225Z,9244.00
2023-04-09T12:00:14.214Z,9696.00
2023-04-09T12:01:14.216Z,11200.00
2023-04-09T12:02:14.254Z,9248.00
2023-04-09T12:03:14.331Z,8964.00
2023-04-09T12:04:14.349Z,8812.00
2023-04-09T12:05:14.281Z,8780.00
2023-04-09T12:06:14.172Z,8788.00
2023-04-09T12:07:14.160Z,8836.00
2023-04-09T12:08:14.160Z,9228.00
2023-04-09T12:09:14.212Z,9800.00
2023-04-09T12:10:14.138Z,9980.00
2023-04-09T12:11:14.134Z,11396.00
2023-04-09T12:12:14.125Z,11716.00
2023-04-09T12:13:14.140Z,11560.00
2023-04-09T12:14:14.131Z,11488.00
2023-04-09T12:15:14.093Z,11440.00
2023-04-09T12:16:14.151Z,11408.00
2023-04-09T12:17:14.089Z,10708.00
2023-04-09T12:18:14.093Z,10992.00
2023-04-09T12:19:14.126Z,9896.00
2023-04-09T12:20:14.061Z,10576.00
2023-04-09T12:21:14.058Z,10004.00
2023-04-09T12:22:14.049Z,9084.00
2023-04-09T12:23:14.044Z,9396.00
2023-04-09T12:24:14.049Z,10044.00
2023-04-09T12:25:14.012Z,11648.00
2023-04-09T12:26:14.011Z,11404.00